Terminal Aerodrome Forecast
Issued by NWS Missoula, MT

Home | Current Version | Previous Version | Text Only | Print | Product List | Glossary On
Versions: 1 2 3 4 5 6 7 8 9 10 11 12 13 14 15 16 17 18 19 20 21 22 23 24 25
000
FTUS45 KMSO 051736
TAFGPI
TAF
KGPI 051736Z 0518/0618 01010KT P6SM VCSH BKN050
      TEMPO 0518/0521 4SM -SN OVC025
     FM060800 02015G20KT P6SM BKN050
     FM061200 02020G25KT P6SM VCSH SCT030 BKN050=

USA.gov is the U.S. government's official web portal to all federal, state and local government web resources and services.